sensor_id;sensor_type;location;lat;lon;timestamp;P1;durP1;ratioP1;P2;durP2;ratioP2
28958;SDS011;16066;0.000;0.000;2022-11-14T00:02:13;19.77;;;12.93;;
28958;SDS011;16066;0.000;0.000;2022-11-14T00:04:40;22.23;;;14.40;;
28958;SDS011;16066;0.000;0.000;2022-11-14T00:07:09;19.60;;;13.17;;
28958;SDS011;16066;0.000;0.000;2022-11-14T00:09:35;22.80;;;14.33;;
28958;SDS011;16066;0.000;0.000;2022-11-14T00:12:02;22.37;;;14.83;;
28958;SDS011;16066;0.000;0.000;2022-11-14T00:14:28;20.50;;;12.90;;
28958;SDS011;16066;0.000;0.000;2022-11-14T00:16:53;19.13;;;12.50;;
28958;SDS011;16066;0.000;0.000;2022-11-14T00:19:19;17.50;;;12.07;;
28958;SDS011;16066;0.000;0.000;2022-11-14T00:21:44;20.13;;;12.60;;
28958;SDS011;16066;0.000;0.000;2022-11-14T00:24:10;22.53;;;14.10;;
28958;SDS011;16066;0.000;0.000;2022-11-14T00:26:36;18.43;;;12.33;;
28958;SDS011;16066;0.000;0.000;2022-11-14T00:29:01;19.20;;;12.77;;
28958;SDS011;16066;0.000;0.000;2022-11-14T00:31:27;21.60;;;13.37;;
28958;SDS011;16066;0.000;0.000;2022-11-14T00:33:53;23.37;;;13.53;;
28958;SDS011;16066;0.000;0.000;2022-11-14T00:36:18;22.00;;;14.47;;
28958;SDS011;16066;0.000;0.000;2022-11-14T00:38:44;24.17;;;14.07;;
28958;SDS011;16066;0.000;0.000;2022-11-14T00:41:09;22.10;;;14.70;;
28958;SDS011;16066;0.000;0.000;2022-11-14T00:43:34;20.73;;;14.33;;
28958;SDS011;16066;0.000;0.000;2022-11-14T00:46:00;20.93;;;14.50;;
28958;SDS011;16066;0.000;0.000;2022-11-14T00:48:25;24.20;;;13.63;;
28958;SDS011;16066;0.000;0.000;2022-11-14T00:50:51;20.70;;;13.43;;
28958;SDS011;16066;0.000;0.000;2022-11-14T00:53:16;21.20;;;14.40;;
28958;SDS011;16066;0.000;0.000;2022-11-14T00:55:42;20.77;;;13.87;;
28958;SDS011;16066;0.000;0.000;2022-11-14T00:58:08;22.20;;;14.70;;
28958;SDS011;16066;0.000;0.000;2022-11-14T01:00:33;21.60;;;13.87;;
28958;SDS011;16066;0.000;0.000;2022-11-14T01:02:59;21.13;;;14.20;;
28958;SDS011;16066;0.000;0.000;2022-11-14T01:05:25;20.67;;;14.20;;
28958;SDS011;16066;0.000;0.000;2022-11-14T01:07:51;23.57;;;16.07;;
28958;SDS011;16066;0.000;0.000;2022-11-14T01:10:17;21.60;;;14.50;;
28958;SDS011;16066;0.000;0.000;2022-11-14T01:12:43;21.00;;;13.70;;
28958;SDS011;16066;0.000;0.000;2022-11-14T01:15:08;22.70;;;14.80;;
28958;SDS011;16066;0.000;0.000;2022-11-14T01:17:34;22.70;;;14.57;;
28958;SDS011;16066;0.000;0.000;2022-11-14T01:20:00;23.10;;;13.80;;
28958;SDS011;16066;0.000;0.000;2022-11-14T01:22:25;20.40;;;13.70;;
28958;SDS011;16066;0.000;0.000;2022-11-14T01:24:51;22.23;;;14.87;;
28958;SDS011;16066;0.000;0.000;2022-11-14T01:27:16;21.70;;;14.30;;
28958;SDS011;16066;0.000;0.000;2022-11-14T01:29:42;19.87;;;13.97;;
28958;SDS011;16066;0.000;0.000;2022-11-14T01:32:08;27.00;;;14.47;;
28958;SDS011;16066;0.000;0.000;2022-11-14T01:34:34;21.93;;;14.90;;
28958;SDS011;16066;0.000;0.000;2022-11-14T01:36:59;22.83;;;15.27;;
28958;SDS011;16066;0.000;0.000;2022-11-14T01:39:25;22.17;;;14.60;;
28958;SDS011;16066;0.000;0.000;2022-11-14T01:41:51;23.53;;;15.00;;
28958;SDS011;16066;0.000;0.000;2022-11-14T01:44:36;22.23;;;14.27;;
28958;SDS011;16066;0.000;0.000;2022-11-14T01:47:08;23.47;;;15.30;;
28958;SDS011;16066;0.000;0.000;2022-11-14T01:49:37;23.30;;;15.10;;
28958;SDS011;16066;0.000;0.000;2022-11-14T01:52:06;25.70;;;14.97;;
28958;SDS011;16066;0.000;0.000;2022-11-14T01:54:45;23.17;;;15.00;;
28958;SDS011;16066;0.000;0.000;2022-11-14T01:57:13;23.47;;;15.63;;
28958;SDS011;16066;0.000;0.000;2022-11-14T01:59:43;25.40;;;16.17;;
28958;SDS011;16066;0.000;0.000;2022-11-14T02:02:17;25.43;;;16.07;;
28958;SDS011;16066;0.000;0.000;2022-11-14T02:04:46;25.93;;;16.40;;
28958;SDS011;16066;0.000;0.000;2022-11-14T02:07:15;24.60;;;15.80;;
28958;SDS011;16066;0.000;0.000;2022-11-14T02:09:43;23.67;;;14.37;;
28958;SDS011;16066;0.000;0.000;2022-11-14T02:12:11;27.50;;;16.80;;
28958;SDS011;16066;0.000;0.000;2022-11-14T02:14:40;23.53;;;14.90;;
28958;SDS011;16066;0.000;0.000;2022-11-14T02:17:09;22.07;;;14.63;;
28958;SDS011;16066;0.000;0.000;2022-11-14T02:19:45;25.23;;;16.50;;
28958;SDS011;16066;0.000;0.000;2022-11-14T02:22:13;23.30;;;15.17;;
28958;SDS011;16066;0.000;0.000;2022-11-14T02:24:39;23.60;;;15.50;;
28958;SDS011;16066;0.000;0.000;2022-11-14T02:27:05;27.57;;;17.10;;
28958;SDS011;16066;0.000;0.000;2022-11-14T02:29:32;22.57;;;14.70;;
28958;SDS011;16066;0.000;0.000;2022-11-14T02:31:59;26.50;;;16.40;;
28958;SDS011;16066;0.000;0.000;2022-11-14T02:34:25;24.27;;;16.40;;
28958;SDS011;16066;0.000;0.000;2022-11-14T02:36:50;25.37;;;16.10;;
28958;SDS011;16066;0.000;0.000;2022-11-14T02:39:16;23.90;;;15.10;;
28958;SDS011;16066;0.000;0.000;2022-11-14T02:41:41;24.07;;;15.27;;
28958;SDS011;16066;0.000;0.000;2022-11-14T02:44:07;22.20;;;14.70;;
28958;SDS011;16066;0.000;0.000;2022-11-14T02:46:32;24.30;;;16.40;;
28958;SDS011;16066;0.000;0.000;2022-11-14T02:48:58;24.53;;;15.90;;
28958;SDS011;16066;0.000;0.000;2022-11-14T02:51:23;25.40;;;16.67;;
28958;SDS011;16066;0.000;0.000;2022-11-14T02:53:49;24.00;;;14.43;;
28958;SDS011;16066;0.000;0.000;2022-11-14T02:56:14;26.20;;;16.73;;
28958;SDS011;16066;0.000;0.000;2022-11-14T02:58:40;25.80;;;16.30;;
28958;SDS011;16066;0.000;0.000;2022-11-14T03:01:05;27.90;;;17.07;;
28958;SDS011;16066;0.000;0.000;2022-11-14T03:03:32;28.00;;;16.80;;
28958;SDS011;16066;0.000;0.000;2022-11-14T03:06:01;25.80;;;17.63;;
28958;SDS011;16066;0.000;0.000;2022-11-14T03:08:27;25.83;;;17.30;;
28958;SDS011;16066;0.000;0.000;2022-11-14T03:10:54;23.63;;;15.60;;
28958;SDS011;16066;0.000;0.000;2022-11-14T03:13:20;25.43;;;16.00;;
28958;SDS011;16066;0.000;0.000;2022-11-14T03:15:46;25.80;;;16.70;;
28958;SDS011;16066;0.000;0.000;2022-11-14T03:18:11;26.90;;;16.43;;
28958;SDS011;16066;0.000;0.000;2022-11-14T03:20:37;26.00;;;17.20;;
28958;SDS011;16066;0.000;0.000;2022-11-14T03:23:03;25.60;;;16.30;;
28958;SDS011;16066;0.000;0.000;2022-11-14T03:25:29;25.83;;;15.80;;
28958;SDS011;16066;0.000;0.000;2022-11-14T03:27:54;25.63;;;16.03;;
28958;SDS011;16066;0.000;0.000;2022-11-14T03:30:20;27.53;;;17.63;;
28958;SDS011;16066;0.000;0.000;2022-11-14T03:32:45;25.03;;;15.40;;
28958;SDS011;16066;0.000;0.000;2022-11-14T03:35:11;22.23;;;15.00;;
28958;SDS011;16066;0.000;0.000;2022-11-14T03:37:37;24.37;;;16.40;;
28958;SDS011;16066;0.000;0.000;2022-11-14T03:40:02;23.20;;;15.60;;
28958;SDS011;16066;0.000;0.000;2022-11-14T03:42:31;25.93;;;17.10;;
28958;SDS011;16066;0.000;0.000;2022-11-14T03:44:58;26.77;;;16.53;;
28958;SDS011;16066;0.000;0.000;2022-11-14T03:47:23;26.33;;;16.30;;
28958;SDS011;16066;0.000;0.000;2022-11-14T03:49:49;24.20;;;16.07;;
28958;SDS011;16066;0.000;0.000;2022-11-14T03:52:15;24.80;;;16.23;;
28958;SDS011;16066;0.000;0.000;2022-11-14T03:54:40;23.00;;;16.53;;
28958;SDS011;16066;0.000;0.000;2022-11-14T03:57:06;26.60;;;16.40;;
28958;SDS011;16066;0.000;0.000;2022-11-14T03:59:31;25.10;;;16.50;;
28958;SDS011;16066;0.000;0.000;2022-11-14T04:01:57;23.23;;;15.87;;
28958;SDS011;16066;0.000;0.000;2022-11-14T04:04:22;23.43;;;16.27;;
28958;SDS011;16066;0.000;0.000;2022-11-14T04:06:48;28.20;;;17.00;;
28958;SDS011;16066;0.000;0.000;2022-11-14T04:09:13;27.30;;;17.30;;
28958;SDS011;16066;0.000;0.000;2022-11-14T04:11:39;27.53;;;15.87;;
28958;SDS011;16066;0.000;0.000;2022-11-14T04:14:04;27.37;;;15.90;;
28958;SDS011;16066;0.000;0.000;2022-11-14T04:16:30;24.90;;;15.93;;
28958;SDS011;16066;0.000;0.000;2022-11-14T04:18:55;25.60;;;16.50;;
28958;SDS011;16066;0.000;0.000;2022-11-14T04:21:21;25.07;;;16.83;;
28958;SDS011;16066;0.000;0.000;2022-11-14T04:23:47;24.53;;;15.97;;
28958;SDS011;16066;0.000;0.000;2022-11-14T04:26:13;25.30;;;15.77;;
28958;SDS011;16066;0.000;0.000;2022-11-14T04:28:38;23.83;;;16.20;;
28958;SDS011;16066;0.000;0.000;2022-11-14T04:31:04;25.13;;;15.90;;
28958;SDS011;16066;0.000;0.000;2022-11-14T04:33:29;27.13;;;16.27;;
28958;SDS011;16066;0.000;0.000;2022-11-14T04:35:55;26.60;;;17.60;;
28958;SDS011;16066;0.000;0.000;2022-11-14T04:38:20;24.77;;;15.50;;
28958;SDS011;16066;0.000;0.000;2022-11-14T04:40:49;24.53;;;15.93;;
28958;SDS011;16066;0.000;0.000;2022-11-14T04:43:16;27.27;;;16.10;;
28958;SDS011;16066;0.000;0.000;2022-11-14T04:45:42;23.43;;;15.80;;
28958;SDS011;16066;0.000;0.000;2022-11-14T04:48:07;24.47;;;15.53;;
28958;SDS011;16066;0.000;0.000;2022-11-14T04:50:33;23.87;;;15.47;;
28958;SDS011;16066;0.000;0.000;2022-11-14T04:52:58;27.33;;;16.20;;
28958;SDS011;16066;0.000;0.000;2022-11-14T04:55:24;24.20;;;15.27;;
28958;SDS011;16066;0.000;0.000;2022-11-14T04:57:53;23.80;;;16.03;;
28958;SDS011;16066;0.000;0.000;2022-11-14T05:00:20;21.53;;;14.30;;
28958;SDS011;16066;0.000;0.000;2022-11-14T05:02:45;22.50;;;14.90;;
28958;SDS011;16066;0.000;0.000;2022-11-14T05:05:11;23.23;;;14.83;;
28958;SDS011;16066;0.000;0.000;2022-11-14T05:07:36;24.33;;;16.70;;
28958;SDS011;16066;0.000;0.000;2022-11-14T05:10:02;26.83;;;16.53;;
28958;SDS011;16066;0.000;0.000;2022-11-14T05:12:28;28.53;;;16.53;;
28958;SDS011;16066;0.000;0.000;2022-11-14T05:14:53;24.60;;;16.37;;
28958;SDS011;16066;0.000;0.000;2022-11-14T05:17:19;24.67;;;15.77;;
28958;SDS011;16066;0.000;0.000;2022-11-14T05:19:44;23.67;;;14.83;;
28958;SDS011;16066;0.000;0.000;2022-11-14T05:22:10;24.60;;;15.53;;
28958;SDS011;16066;0.000;0.000;2022-11-14T05:24:35;23.97;;;14.67;;
28958;SDS011;16066;0.000;0.000;2022-11-14T05:27:01;25.23;;;14.73;;
28958;SDS011;16066;0.000;0.000;2022-11-14T05:29:26;22.80;;;14.87;;
28958;SDS011;16066;0.000;0.000;2022-11-14T05:31:52;21.47;;;13.97;;
28958;SDS011;16066;0.000;0.000;2022-11-14T05:34:17;22.27;;;14.80;;
28958;SDS011;16066;0.000;0.000;2022-11-14T05:36:43;21.80;;;14.53;;
28958;SDS011;16066;0.000;0.000;2022-11-14T05:39:08;24.80;;;15.90;;
28958;SDS011;16066;0.000;0.000;2022-11-14T05:41:34;21.87;;;14.37;;
28958;SDS011;16066;0.000;0.000;2022-11-14T05:43:59;20.77;;;14.03;;
28958;SDS011;16066;0.000;0.000;2022-11-14T05:46:27;24.57;;;15.93;;
28958;SDS011;16066;0.000;0.000;2022-11-14T05:48:53;23.10;;;14.93;;
28958;SDS011;16066;0.000;0.000;2022-11-14T05:51:18;21.40;;;14.73;;
28958;SDS011;16066;0.000;0.000;2022-11-14T05:53:44;22.00;;;14.43;;
28958;SDS011;16066;0.000;0.000;2022-11-14T05:56:10;25.47;;;15.70;;
28958;SDS011;16066;0.000;0.000;2022-11-14T05:58:36;21.43;;;14.30;;
28958;SDS011;16066;0.000;0.000;2022-11-14T06:03:39;26.47;;;15.20;;
28958;SDS011;16066;0.000;0.000;2022-11-14T06:06:07;24.63;;;15.10;;
28958;SDS011;16066;0.000;0.000;2022-11-14T06:08:34;25.27;;;14.93;;
28958;SDS011;16066;0.000;0.000;2022-11-14T06:11:07;24.40;;;14.60;;
28958;SDS011;16066;0.000;0.000;2022-11-14T06:13:34;26.37;;;15.13;;
28958;SDS011;16066;0.000;0.000;2022-11-14T06:16:00;24.30;;;14.93;;
28958;SDS011;16066;0.000;0.000;2022-11-14T06:18:27;24.33;;;15.73;;
28958;SDS011;16066;0.000;0.000;2022-11-14T06:20:54;23.00;;;15.30;;
28958;SDS011;16066;0.000;0.000;2022-11-14T06:23:23;22.40;;;15.07;;
28958;SDS011;16066;0.000;0.000;2022-11-14T06:25:49;23.60;;;16.13;;
28958;SDS011;16066;0.000;0.000;2022-11-14T06:28:14;20.83;;;13.93;;
28958;SDS011;16066;0.000;0.000;2022-11-14T06:30:40;24.30;;;14.97;;
28958;SDS011;16066;0.000;0.000;2022-11-14T06:33:05;22.43;;;13.97;;
28958;SDS011;16066;0.000;0.000;2022-11-14T06:35:31;19.87;;;13.37;;
28958;SDS011;16066;0.000;0.000;2022-11-14T06:37:58;21.33;;;13.97;;
28958;SDS011;16066;0.000;0.000;2022-11-14T06:40:24;22.17;;;13.93;;
28958;SDS011;16066;0.000;0.000;2022-11-14T06:42:49;22.53;;;13.37;;
28958;SDS011;16066;0.000;0.000;2022-11-14T06:45:15;20.83;;;14.17;;
28958;SDS011;16066;0.000;0.000;2022-11-14T06:47:40;24.70;;;13.73;;
28958;SDS011;16066;0.000;0.000;2022-11-14T06:50:06;20.00;;;13.70;;
28958;SDS011;16066;0.000;0.000;2022-11-14T06:52:32;20.10;;;12.90;;
28958;SDS011;16066;0.000;0.000;2022-11-14T06:54:57;20.03;;;13.37;;
28958;SDS011;16066;0.000;0.000;2022-11-14T06:57:23;19.50;;;13.10;;
28958;SDS011;16066;0.000;0.000;2022-11-14T06:59:48;22.00;;;14.17;;
28958;SDS011;16066;0.000;0.000;2022-11-14T07:02:14;20.73;;;13.27;;
28958;SDS011;16066;0.000;0.000;2022-11-14T07:04:39;32.33;;;16.03;;
28958;SDS011;16066;0.000;0.000;2022-11-14T07:07:05;23.03;;;14.40;;
28958;SDS011;16066;0.000;0.000;2022-11-14T07:09:30;23.40;;;13.30;;
28958;SDS011;16066;0.000;0.000;2022-11-14T07:11:56;21.30;;;11.97;;
28958;SDS011;16066;0.000;0.000;2022-11-14T07:14:21;19.90;;;12.10;;
28958;SDS011;16066;0.000;0.000;2022-11-14T07:16:47;22.30;;;12.80;;
28958;SDS011;16066;0.000;0.000;2022-11-14T07:19:12;18.83;;;11.60;;
28958;SDS011;16066;0.000;0.000;2022-11-14T07:21:38;21.27;;;12.23;;
28958;SDS011;16066;0.000;0.000;2022-11-14T07:24:04;19.93;;;12.63;;
28958;SDS011;16066;0.000;0.000;2022-11-14T07:26:29;18.40;;;12.23;;
28958;SDS011;16066;0.000;0.000;2022-11-14T07:28:55;20.60;;;13.03;;
28958;SDS011;16066;0.000;0.000;2022-11-14T07:31:21;22.63;;;13.67;;
28958;SDS011;16066;0.000;0.000;2022-11-14T07:33:46;20.33;;;12.53;;
28958;SDS011;16066;0.000;0.000;2022-11-14T07:36:12;25.73;;;13.60;;
28958;SDS011;16066;0.000;0.000;2022-11-14T07:38:39;23.47;;;13.87;;
28958;SDS011;16066;0.000;0.000;2022-11-14T07:41:06;19.83;;;13.33;;
28958;SDS011;16066;0.000;0.000;2022-11-14T07:43:36;23.17;;;14.13;;
28958;SDS011;16066;0.000;0.000;2022-11-14T07:46:06;24.70;;;14.30;;
28958;SDS011;16066;0.000;0.000;2022-11-14T07:48:34;23.90;;;14.53;;
28958;SDS011;16066;0.000;0.000;2022-11-14T07:51:00;21.03;;;13.30;;
28958;SDS011;16066;0.000;0.000;2022-11-14T07:53:28;23.13;;;13.10;;
28958;SDS011;16066;0.000;0.000;2022-11-14T07:55:54;26.10;;;14.63;;
28958;SDS011;16066;0.000;0.000;2022-11-14T07:58:20;20.10;;;13.37;;
28958;SDS011;16066;0.000;0.000;2022-11-14T08:00:46;17.40;;;12.20;;
28958;SDS011;16066;0.000;0.000;2022-11-14T08:03:11;26.23;;;13.63;;
28958;SDS011;16066;0.000;0.000;2022-11-14T08:05:37;23.30;;;13.60;;
28958;SDS011;16066;0.000;0.000;2022-11-14T08:08:03;22.40;;;14.07;;
28958;SDS011;16066;0.000;0.000;2022-11-14T08:10:29;24.07;;;14.10;;
28958;SDS011;16066;0.000;0.000;2022-11-14T08:13:02;21.63;;;13.13;;
28958;SDS011;16066;0.000;0.000;2022-11-14T08:15:29;22.67;;;14.60;;
28958;SDS011;16066;0.000;0.000;2022-11-14T08:17:56;24.67;;;13.13;;
28958;SDS011;16066;0.000;0.000;2022-11-14T08:20:23;24.50;;;13.57;;
28958;SDS011;16066;0.000;0.000;2022-11-14T08:22:49;20.87;;;13.60;;
28958;SDS011;16066;0.000;0.000;2022-11-14T08:25:14;20.63;;;14.40;;
28958;SDS011;16066;0.000;0.000;2022-11-14T08:27:40;23.53;;;15.20;;
28958;SDS011;16066;0.000;0.000;2022-11-14T08:30:06;21.70;;;14.53;;
28958;SDS011;16066;0.000;0.000;2022-11-14T08:32:32;20.80;;;13.50;;
28958;SDS011;16066;0.000;0.000;2022-11-14T08:34:57;22.77;;;12.90;;
28958;SDS011;16066;0.000;0.000;2022-11-14T08:37:23;24.27;;;14.50;;
28958;SDS011;16066;0.000;0.000;2022-11-14T08:39:48;22.00;;;13.40;;
28958;SDS011;16066;0.000;0.000;2022-11-14T08:42:14;22.43;;;14.60;;
28958;SDS011;16066;0.000;0.000;2022-11-14T08:44:39;19.37;;;13.83;;
28958;SDS011;16066;0.000;0.000;2022-11-14T08:47:05;23.97;;;14.27;;
28958;SDS011;16066;0.000;0.000;2022-11-14T08:49:30;23.13;;;14.03;;
28958;SDS011;16066;0.000;0.000;2022-11-14T08:51:56;20.53;;;13.90;;
28958;SDS011;16066;0.000;0.000;2022-11-14T08:54:21;20.87;;;13.80;;
28958;SDS011;16066;0.000;0.000;2022-11-14T08:56:47;22.10;;;14.70;;
28958;SDS011;16066;0.000;0.000;2022-11-14T08:59:13;19.07;;;12.73;;
28958;SDS011;16066;0.000;0.000;2022-11-14T09:01:38;18.37;;;12.70;;
28958;SDS011;16066;0.000;0.000;2022-11-14T09:04:04;24.43;;;13.60;;
28958;SDS011;16066;0.000;0.000;2022-11-14T09:06:29;22.37;;;14.93;;
28958;SDS011;16066;0.000;0.000;2022-11-14T09:08:56;20.73;;;13.10;;
28958;SDS011;16066;0.000;0.000;2022-11-14T09:11:22;22.50;;;13.97;;
28958;SDS011;16066;0.000;0.000;2022-11-14T09:13:47;21.60;;;14.63;;
28958;SDS011;16066;0.000;0.000;2022-11-14T09:16:13;19.33;;;13.63;;
28958;SDS011;16066;0.000;0.000;2022-11-14T09:18:38;24.30;;;14.07;;
28958;SDS011;16066;0.000;0.000;2022-11-14T09:21:05;39.93;;;15.23;;
28958;SDS011;16066;0.000;0.000;2022-11-14T09:23:32;26.87;;;15.47;;
28958;SDS011;16066;0.000;0.000;2022-11-14T09:26:02;22.57;;;13.67;;
28958;SDS011;16066;0.000;0.000;2022-11-14T09:28:29;18.27;;;12.87;;
28958;SDS011;16066;0.000;0.000;2022-11-14T09:30:58;19.67;;;12.77;;
28958;SDS011;16066;0.000;0.000;2022-11-14T09:33:28;15.00;;;10.90;;
28958;SDS011;16066;0.000;0.000;2022-11-14T09:36:01;19.17;;;11.37;;
28958;SDS011;16066;0.000;0.000;2022-11-14T09:38:28;15.80;;;10.90;;
28958;SDS011;16066;0.000;0.000;2022-11-14T09:45:54;12.37;;;9.70;;
28958;SDS011;16066;0.000;0.000;2022-11-14T09:48:21;14.30;;;10.00;;
28958;SDS011;16066;0.000;0.000;2022-11-14T09:51:03;11.57;;;8.33;;
28958;SDS011;16066;0.000;0.000;2022-11-14T09:54:03;12.20;;;9.17;;
28958;SDS011;16066;0.000;0.000;2022-11-14T09:56:40;11.37;;;8.87;;
28958;SDS011;16066;0.000;0.000;2022-11-14T09:59:11;9.77;;;8.07;;
28958;SDS011;16066;0.000;0.000;2022-11-14T10:04:34;10.00;;;7.60;;
28958;SDS011;16066;0.000;0.000;2022-11-14T10:07:21;10.13;;;7.90;;
28958;SDS011;16066;0.000;0.000;2022-11-14T10:24:50;7.20;;;6.10;;
28958;SDS011;16066;0.000;0.000;2022-11-14T10:27:45;11.23;;;7.10;;
28958;SDS011;16066;0.000;0.000;2022-11-14T10:30:43;9.53;;;6.87;;
28958;SDS011;16066;0.000;0.000;2022-11-14T10:33:40;9.17;;;6.30;;
28958;SDS011;16066;0.000;0.000;2022-11-14T10:39:41;8.87;;;6.83;;
28958;SDS011;16066;0.000;0.000;2022-11-14T10:42:15;9.00;;;7.00;;
28958;SDS011;16066;0.000;0.000;2022-11-14T10:44:57;10.93;;;7.37;;
28958;SDS011;16066;0.000;0.000;2022-11-14T10:47:42;10.80;;;7.33;;
28958;SDS011;16066;0.000;0.000;2022-11-14T10:50:14;9.53;;;7.37;;
28958;SDS011;16066;0.000;0.000;2022-11-14T10:52:44;9.23;;;5.93;;
28958;SDS011;16066;0.000;0.000;2022-11-14T10:55:15;9.13;;;6.60;;
28958;SDS011;16066;0.000;0.000;2022-11-14T10:57:44;12.20;;;8.10;;
28958;SDS011;16066;0.000;0.000;2022-11-14T11:00:11;13.73;;;7.50;;
28958;SDS011;16066;0.000;0.000;2022-11-14T11:02:51;17.83;;;6.90;;
28958;SDS011;16066;0.000;0.000;2022-11-14T11:05:20;16.50;;;7.23;;
28958;SDS011;16066;0.000;0.000;2022-11-14T11:07:47;10.27;;;6.93;;
28958;SDS011;16066;0.000;0.000;2022-11-14T11:10:33;9.90;;;7.47;;
28958;SDS011;16066;0.000;0.000;2022-11-14T11:14:19;12.63;;;8.20;;
28958;SDS011;16066;0.000;0.000;2022-11-14T11:16:24;12.73;;;7.90;;
28958;SDS011;16066;0.000;0.000;2022-11-14T11:18:51;15.27;;;8.83;;
28958;SDS011;16066;0.000;0.000;2022-11-14T11:21:20;12.80;;;8.70;;
28958;SDS011;16066;0.000;0.000;2022-11-14T11:29:26;12.03;;;8.20;;
28958;SDS011;16066;0.000;0.000;2022-11-14T11:31:48;14.93;;;8.60;;
28958;SDS011;16066;0.000;0.000;2022-11-14T11:34:25;12.60;;;8.23;;
28958;SDS011;16066;0.000;0.000;2022-11-14T11:36:54;10.47;;;7.03;;
28958;SDS011;16066;0.000;0.000;2022-11-14T11:39:44;14.30;;;8.60;;
28958;SDS011;16066;0.000;0.000;2022-11-14T11:42:22;11.57;;;8.07;;
28958;SDS011;16066;0.000;0.000;2022-11-14T11:45:04;11.73;;;9.00;;
28958;SDS011;16066;0.000;0.000;2022-11-14T11:47:37;16.83;;;8.20;;
28958;SDS011;16066;0.000;0.000;2022-11-14T11:50:16;15.33;;;10.60;;
28958;SDS011;16066;0.000;0.000;2022-11-14T11:55:32;12.50;;;8.10;;
28958;SDS011;16066;0.000;0.000;2022-11-14T11:58:01;13.20;;;8.80;;
28958;SDS011;16066;0.000;0.000;2022-11-14T12:00:30;14.77;;;8.33;;
28958;SDS011;16066;0.000;0.000;2022-11-14T12:02:57;17.33;;;8.90;;
28958;SDS011;16066;0.000;0.000;2022-11-14T12:11:01;13.33;;;9.60;;
28958;SDS011;16066;0.000;0.000;2022-11-14T12:18:58;17.70;;;10.63;;
28958;SDS011;16066;0.000;0.000;2022-11-14T12:21:57;15.03;;;10.23;;
28958;SDS011;16066;0.000;0.000;2022-11-14T12:27:59;19.77;;;12.80;;
28958;SDS011;16066;0.000;0.000;2022-11-14T12:30:29;19.27;;;13.97;;
28958;SDS011;16066;0.000;0.000;2022-11-14T12:35:35;19.60;;;12.70;;
28958;SDS011;16066;0.000;0.000;2022-11-14T12:38:04;17.90;;;11.80;;
28958;SDS011;16066;0.000;0.000;2022-11-14T12:40:40;17.37;;;11.57;;
28958;SDS011;16066;0.000;0.000;2022-11-14T12:46:09;12.90;;;10.40;;
28958;SDS011;16066;0.000;0.000;2022-11-14T12:48:40;27.83;;;12.47;;
28958;SDS011;16066;0.000;0.000;2022-11-14T12:53:51;42.17;;;12.77;;
28958;SDS011;16066;0.000;0.000;2022-11-14T12:56:36;23.17;;;12.60;;
28958;SDS011;16066;0.000;0.000;2022-11-14T13:04:42;17.20;;;11.50;;
28958;SDS011;16066;0.000;0.000;2022-11-14T13:07:23;21.50;;;12.83;;
28958;SDS011;16066;0.000;0.000;2022-11-14T13:10:22;24.10;;;13.90;;
28958;SDS011;16066;0.000;0.000;2022-11-14T13:13:10;19.47;;;12.83;;
28958;SDS011;16066;0.000;0.000;2022-11-14T13:15:56;21.20;;;13.07;;
28958;SDS011;16066;0.000;0.000;2022-11-14T13:18:49;23.40;;;14.50;;
28958;SDS011;16066;0.000;0.000;2022-11-14T13:22:36;24.70;;;13.97;;
28958;SDS011;16066;0.000;0.000;2022-11-14T13:30:00;28.63;;;17.00;;
28958;SDS011;16066;0.000;0.000;2022-11-14T13:40:26;36.97;;;20.20;;
28958;SDS011;16066;0.000;0.000;2022-11-14T13:51:17;41.50;;;23.20;;
28958;SDS011;16066;0.000;0.000;2022-11-14T13:53:45;47.43;;;25.40;;
28958;SDS011;16066;0.000;0.000;2022-11-14T13:56:25;46.73;;;23.90;;
28958;SDS011;16066;0.000;0.000;2022-11-14T13:59:16;56.60;;;23.37;;
28958;SDS011;16066;0.000;0.000;2022-11-14T14:04:51;44.30;;;24.70;;
28958;SDS011;16066;0.000;0.000;2022-11-14T14:12:58;49.23;;;23.17;;
28958;SDS011;16066;0.000;0.000;2022-11-14T14:16:20;49.40;;;24.80;;
28958;SDS011;16066;0.000;0.000;2022-11-14T14:21:44;42.03;;;23.07;;
28958;SDS011;16066;0.000;0.000;2022-11-14T14:24:44;47.80;;;24.27;;
28958;SDS011;16066;0.000;0.000;2022-11-14T14:27:29;42.20;;;23.83;;
28958;SDS011;16066;0.000;0.000;2022-11-14T14:30:15;43.50;;;24.07;;
28958;SDS011;16066;0.000;0.000;2022-11-14T14:32:43;45.00;;;23.10;;
28958;SDS011;16066;0.000;0.000;2022-11-14T14:35:32;46.27;;;22.30;;
28958;SDS011;16066;0.000;0.000;2022-11-14T14:37:59;37.10;;;22.33;;
28958;SDS011;16066;0.000;0.000;2022-11-14T14:42:52;38.43;;;20.93;;
28958;SDS011;16066;0.000;0.000;2022-11-14T14:45:19;35.40;;;21.27;;
28958;SDS011;16066;0.000;0.000;2022-11-14T14:47:50;60.97;;;22.17;;
28958;SDS011;16066;0.000;0.000;2022-11-14T14:50:24;36.63;;;19.90;;
28958;SDS011;16066;0.000;0.000;2022-11-14T14:53:03;40.87;;;19.97;;
28958;SDS011;16066;0.000;0.000;2022-11-14T14:55:31;39.37;;;18.43;;
28958;SDS011;16066;0.000;0.000;2022-11-14T15:01:20;47.10;;;19.50;;
28958;SDS011;16066;0.000;0.000;2022-11-14T15:03:42;42.93;;;19.97;;
28958;SDS011;16066;0.000;0.000;2022-11-14T15:11:44;30.13;;;17.50;;
28958;SDS011;16066;0.000;0.000;2022-11-14T15:14:21;41.50;;;19.37;;
28958;SDS011;16066;0.000;0.000;2022-11-14T15:16:48;35.20;;;19.13;;
28958;SDS011;16066;0.000;0.000;2022-11-14T15:19:16;35.77;;;19.13;;
28958;SDS011;16066;0.000;0.000;2022-11-14T15:24:43;32.20;;;17.27;;
28958;SDS011;16066;0.000;0.000;2022-11-14T15:27:27;40.00;;;18.10;;
28958;SDS011;16066;0.000;0.000;2022-11-14T15:29:56;33.60;;;17.97;;
28958;SDS011;16066;0.000;0.000;2022-11-14T15:32:25;31.97;;;16.80;;
28958;SDS011;16066;0.000;0.000;2022-11-14T15:40:43;30.30;;;15.87;;
28958;SDS011;16066;0.000;0.000;2022-11-14T15:48:56;25.73;;;15.90;;
28958;SDS011;16066;0.000;0.000;2022-11-14T15:51:41;34.50;;;15.83;;
28958;SDS011;16066;0.000;0.000;2022-11-14T15:54:29;19.83;;;14.13;;
28958;SDS011;16066;0.000;0.000;2022-11-14T15:56:57;28.03;;;14.97;;
28958;SDS011;16066;0.000;0.000;2022-11-14T15:59:25;28.80;;;15.77;;
28958;SDS011;16066;0.000;0.000;2022-11-14T16:01:55;22.43;;;13.80;;
28958;SDS011;16066;0.000;0.000;2022-11-14T16:04:24;25.17;;;16.07;;
28958;SDS011;16066;0.000;0.000;2022-11-14T16:06:54;24.60;;;14.13;;
28958;SDS011;16066;0.000;0.000;2022-11-14T16:09:20;26.73;;;15.80;;
28958;SDS011;16066;0.000;0.000;2022-11-14T16:11:46;22.40;;;14.13;;
28958;SDS011;16066;0.000;0.000;2022-11-14T16:14:11;32.87;;;14.67;;
28958;SDS011;16066;0.000;0.000;2022-11-14T16:16:37;24.77;;;14.33;;
28958;SDS011;16066;0.000;0.000;2022-11-14T16:19:03;23.37;;;14.83;;
28958;SDS011;16066;0.000;0.000;2022-11-14T16:21:29;21.67;;;14.70;;
28958;SDS011;16066;0.000;0.000;2022-11-14T16:23:55;22.23;;;13.80;;
28958;SDS011;16066;0.000;0.000;2022-11-14T16:26:21;23.73;;;14.73;;
28958;SDS011;16066;0.000;0.000;2022-11-14T16:28:47;23.10;;;14.30;;
28958;SDS011;16066;0.000;0.000;2022-11-14T16:31:13;22.93;;;13.97;;
28958;SDS011;16066;0.000;0.000;2022-11-14T16:33:39;22.30;;;14.07;;
28958;SDS011;16066;0.000;0.000;2022-11-14T16:36:05;22.40;;;13.63;;
28958;SDS011;16066;0.000;0.000;2022-11-14T16:38:31;19.83;;;13.63;;
28958;SDS011;16066;0.000;0.000;2022-11-14T16:40:56;21.40;;;13.37;;
28958;SDS011;16066;0.000;0.000;2022-11-14T16:43:24;25.97;;;13.67;;
28958;SDS011;16066;0.000;0.000;2022-11-14T16:45:49;24.20;;;15.37;;
28958;SDS011;16066;0.000;0.000;2022-11-14T16:48:15;22.30;;;14.10;;
28958;SDS011;16066;0.000;0.000;2022-11-14T16:50:40;23.43;;;13.73;;
28958;SDS011;16066;0.000;0.000;2022-11-14T16:53:06;24.47;;;14.70;;